createdAt,value
2017-08-06T00:01:51.681Z,1.70
2017-08-06T00:04:17.959Z,1.60
2017-08-06T00:06:44.259Z,1.83
2017-08-06T00:09:10.492Z,1.80
2017-08-06T00:11:36.776Z,1.70
2017-08-06T00:14:03.457Z,1.50
2017-08-06T00:16:29.743Z,1.70
2017-08-06T00:18:56.038Z,1.40
2017-08-06T00:21:22.340Z,1.60
2017-08-06T00:23:48.631Z,1.60
2017-08-06T00:26:14.888Z,1.80
2017-08-06T00:28:41.179Z,1.87
2017-08-06T00:31:07.800Z,1.60
2017-08-06T00:33:34.073Z,1.77
2017-08-06T00:36:00.347Z,2.03
2017-08-06T00:38:26.642Z,1.63
2017-08-06T00:40:52.929Z,1.73
2017-08-06T00:43:19.601Z,1.70
2017-08-06T00:45:45.912Z,1.60
2017-08-06T00:48:12.167Z,1.73
2017-08-06T00:50:38.453Z,1.60
2017-08-06T00:53:04.748Z,1.40
2017-08-06T00:55:31.022Z,1.50
2017-08-06T00:57:57.269Z,1.47
2017-08-06T01:00:23.847Z,1.53
2017-08-06T01:02:50.100Z,1.80
2017-08-06T01:05:16.407Z,1.50
2017-08-06T01:07:42.681Z,1.57
2017-08-06T01:10:08.958Z,1.47
2017-08-06T01:12:35.224Z,1.40
2017-08-06T01:15:01.490Z,1.47
2017-08-06T01:17:27.776Z,1.53
2017-08-06T01:19:54.034Z,1.30
2017-08-06T01:22:20.717Z,1.53
2017-08-06T01:24:46.971Z,1.50
2017-08-06T01:27:13.258Z,1.60
2017-08-06T01:29:39.586Z,2.00
2017-08-06T01:32:05.890Z,2.20
2017-08-06T01:34:32.203Z,2.10
2017-08-06T01:36:58.881Z,1.67
2017-08-06T01:39:25.204Z,1.93
2017-08-06T01:41:51.487Z,1.90
2017-08-06T01:44:17.803Z,1.80
2017-08-06T01:46:44.113Z,2.13
2017-08-06T01:49:10.690Z,1.40
2017-08-06T01:51:36.990Z,1.67
2017-08-06T01:54:03.281Z,1.83
2017-08-06T01:56:29.578Z,1.53
2017-08-06T01:58:55.874Z,1.40
2017-08-06T02:01:22.233Z,1.63
2017-08-06T02:03:48.509Z,2.40
2017-08-06T02:06:14.771Z,2.10
2017-08-06T02:08:41.042Z,1.67
2017-08-06T02:11:07.702Z,1.70
2017-08-06T02:13:33.948Z,1.60
2017-08-06T02:16:00.289Z,1.30
2017-08-06T02:18:26.589Z,1.80
2017-08-06T02:20:52.888Z,1.83
2017-08-06T02:23:19.165Z,2.07
2017-08-06T02:25:45.445Z,1.90
2017-08-06T02:28:12.107Z,1.73
2017-08-06T02:30:38.365Z,2.10
2017-08-06T02:33:04.642Z,1.50
2017-08-06T02:35:30.959Z,1.73
2017-08-06T02:37:57.689Z,2.10
2017-08-06T02:40:23.958Z,1.90
2017-08-06T02:42:50.269Z,1.80
2017-08-06T02:45:16.950Z,1.50
2017-08-06T02:47:43.233Z,1.63
2017-08-06T02:50:09.525Z,1.87
2017-08-06T02:52:35.781Z,1.80
2017-08-06T02:55:02.393Z,2.10
2017-08-06T02:57:28.660Z,1.67
2017-08-06T02:59:54.918Z,2.53
2017-08-06T03:02:21.190Z,1.90
2017-08-06T03:04:47.474Z,1.67
2017-08-06T03:07:13.752Z,2.47
2017-08-06T03:09:40.022Z,2.10
2017-08-06T03:12:06.694Z,1.60
2017-08-06T03:14:33.009Z,2.30
2017-08-06T03:16:59.318Z,2.70
2017-08-06T03:19:25.956Z,2.77
2017-08-06T03:21:52.601Z,2.40
2017-08-06T03:24:19.248Z,2.70
2017-08-06T03:26:45.552Z,3.40
2017-08-06T03:29:11.821Z,2.47
2017-08-06T03:31:38.099Z,2.23
2017-08-06T03:34:04.374Z,3.07
2017-08-06T03:36:30.673Z,2.77
2017-08-06T03:38:56.975Z,2.87
2017-08-06T03:41:23.247Z,2.30
2017-08-06T03:43:49.519Z,2.23
2017-08-06T03:46:15.847Z,2.43
2017-08-06T03:48:42.086Z,2.87
2017-08-06T03:51:08.375Z,2.10
2017-08-06T03:53:34.617Z,2.53
2017-08-06T03:56:00.873Z,2.40
2017-08-06T03:58:27.127Z,2.23
2017-08-06T04:00:53.419Z,2.80
2017-08-06T04:03:19.677Z,2.27
2017-08-06T04:05:45.970Z,2.97
2017-08-06T04:08:12.241Z,2.53
2017-08-06T04:10:38.854Z,2.53
2017-08-06T04:13:05.132Z,2.63
2017-08-06T04:15:31.401Z,2.70
2017-08-06T04:17:57.701Z,2.57
2017-08-06T04:20:23.962Z,3.07
2017-08-06T04:22:50.256Z,2.47
2017-08-06T04:25:16.531Z,2.90
2017-08-06T04:27:42.784Z,2.80
2017-08-06T04:30:09.061Z,2.63
2017-08-06T04:32:35.324Z,2.73
2017-08-06T04:35:01.585Z,2.50
2017-08-06T04:37:28.181Z,2.93
2017-08-06T04:39:54.432Z,2.63
2017-08-06T04:42:20.715Z,3.27
2017-08-06T04:44:47.000Z,2.80
2017-08-06T04:47:13.643Z,3.00
2017-08-06T04:49:40.297Z,3.20
2017-08-06T04:52:06.561Z,3.13
2017-08-06T04:54:32.851Z,2.70
2017-08-06T04:56:59.129Z,3.20
2017-08-06T04:59:25.617Z,3.23
2017-08-06T05:01:51.875Z,3.07
2017-08-06T05:04:18.146Z,3.47
2017-08-06T05:06:44.434Z,3.93
2017-08-06T05:09:10.708Z,3.87
2017-08-06T05:11:37.006Z,3.10
2017-08-06T05:14:03.247Z,3.60
2017-08-06T05:16:29.542Z,3.90
2017-08-06T05:18:55.794Z,3.50
2017-08-06T05:21:22.548Z,4.10
2017-08-06T05:23:48.862Z,3.53
2017-08-06T05:26:15.115Z,4.27
2017-08-06T05:28:41.370Z,3.50
2017-08-06T05:31:08.006Z,3.90
2017-08-06T05:33:34.684Z,3.87
2017-08-06T05:36:00.961Z,3.90
2017-08-06T05:38:27.243Z,3.57
2017-08-06T05:40:53.531Z,4.37
2017-08-06T05:43:20.174Z,4.10
2017-08-06T05:45:46.806Z,3.83
2017-08-06T05:48:13.914Z,4.17
2017-08-06T05:50:40.172Z,3.73
2017-08-06T05:53:06.425Z,3.93
2017-08-06T05:55:32.770Z,3.90
2017-08-06T05:57:59.031Z,3.60
2017-08-06T06:00:25.362Z,4.07
2017-08-06T06:02:51.639Z,3.80
2017-08-06T06:05:17.938Z,4.40
2017-08-06T06:07:44.213Z,3.70
2017-08-06T06:10:10.780Z,3.97
2017-08-06T06:12:37.074Z,3.50
2017-08-06T06:15:03.402Z,4.00
2017-08-06T06:17:29.691Z,4.20
2017-08-06T06:19:55.945Z,3.70
2017-08-06T06:22:22.252Z,3.20
2017-08-06T06:24:48.525Z,3.80
2017-08-06T06:27:14.806Z,3.90
2017-08-06T06:29:41.117Z,3.93
2017-08-06T06:32:07.648Z,3.73
2017-08-06T06:34:33.929Z,4.30
2017-08-06T06:37:00.197Z,3.63
2017-08-06T06:39:26.513Z,4.60
2017-08-06T06:41:52.833Z,4.47
2017-08-06T06:44:19.094Z,3.90
2017-08-06T06:46:45.363Z,3.83
2017-08-06T06:49:12.011Z,4.00
2017-08-06T06:51:38.642Z,4.07
2017-08-06T06:54:05.322Z,3.93
2017-08-06T06:56:31.593Z,4.60
2017-08-06T06:58:58.215Z,4.17
2017-08-06T07:01:24.476Z,4.37
2017-08-06T07:03:50.808Z,4.23
2017-08-06T07:06:17.483Z,4.03
2017-08-06T07:08:43.759Z,3.90
2017-08-06T07:11:10.082Z,4.00
2017-08-06T07:13:36.361Z,3.90
2017-08-06T07:16:02.665Z,3.30
2017-08-06T07:18:28.923Z,3.20
2017-08-06T07:20:55.241Z,4.10
2017-08-06T07:23:21.550Z,3.53
2017-08-06T07:25:47.906Z,4.03
2017-08-06T07:28:14.171Z,3.73
2017-08-06T07:30:40.431Z,3.70
2017-08-06T07:33:06.726Z,3.73
2017-08-06T07:35:32.998Z,3.90
2017-08-06T07:37:59.289Z,3.30
2017-08-06T07:40:25.568Z,3.70
2017-08-06T07:42:51.867Z,3.90
2017-08-06T07:45:18.164Z,3.50
2017-08-06T07:47:44.472Z,3.23
2017-08-06T07:50:10.766Z,3.77
2017-08-06T07:52:37.056Z,3.67
2017-08-06T07:55:03.349Z,3.00
2017-08-06T07:57:29.864Z,3.20
2017-08-06T07:59:56.155Z,3.43
2017-08-06T08:02:22.426Z,2.80
2017-08-06T08:04:48.710Z,2.87
2017-08-06T08:07:15.010Z,3.67
2017-08-06T08:09:41.301Z,3.23
2017-08-06T08:12:07.582Z,3.70
2017-08-06T08:14:34.165Z,3.40
2017-08-06T08:17:00.433Z,3.00
2017-08-06T08:19:26.732Z,2.73
2017-08-06T08:21:53.077Z,3.00
2017-08-06T08:24:19.352Z,2.70
2017-08-06T08:26:45.652Z,3.30
2017-08-06T08:29:11.928Z,2.63
2017-08-06T08:31:38.212Z,2.87
2017-08-06T08:34:04.466Z,2.70
2017-08-06T08:36:31.009Z,2.50
2017-08-06T08:38:57.280Z,4.00
2017-08-06T08:41:23.553Z,2.40
2017-08-06T08:43:49.817Z,2.80
2017-08-06T08:46:16.092Z,2.20
2017-08-06T08:48:42.365Z,2.70
2017-08-06T08:51:08.637Z,2.10
2017-08-06T08:53:34.942Z,2.27
2017-08-06T08:56:01.231Z,2.90
2017-08-06T08:58:27.886Z,2.33
2017-08-06T09:00:54.186Z,2.30
2017-08-06T09:03:20.464Z,2.67
2017-08-06T09:05:46.758Z,2.80
2017-08-06T09:08:14.162Z,2.27
2017-08-06T09:10:40.831Z,2.50
2017-08-06T09:13:07.117Z,2.17
2017-08-06T09:15:33.418Z,2.37
2017-08-06T09:17:59.680Z,2.40
2017-08-06T09:20:25.994Z,1.97
2017-08-06T09:22:52.322Z,2.10
2017-08-06T09:25:19.073Z,2.27
2017-08-06T09:27:45.366Z,2.40
2017-08-06T09:30:11.636Z,2.20
2017-08-06T09:32:37.914Z,2.23
2017-08-06T09:35:04.217Z,2.13
2017-08-06T09:37:30.502Z,2.60
2017-08-06T09:39:56.824Z,2.17
2017-08-06T09:42:23.188Z,2.40
2017-08-06T09:44:49.478Z,2.40
2017-08-06T09:47:15.769Z,1.93
2017-08-06T09:49:42.094Z,2.20
2017-08-06T09:52:08.806Z,2.57
2017-08-06T09:54:35.077Z,4.33
2017-08-06T09:57:01.337Z,1.80
2017-08-06T09:59:27.639Z,1.87
2017-08-06T10:01:54.256Z,2.10
2017-08-06T10:04:20.545Z,2.30
2017-08-06T10:06:46.832Z,2.00
2017-08-06T10:09:13.135Z,2.57
2017-08-06T10:11:40.496Z,1.80
2017-08-06T10:14:06.781Z,2.33
2017-08-06T10:16:33.065Z,1.80
2017-08-06T10:18:59.703Z,2.17
2017-08-06T10:21:26.370Z,2.40
2017-08-06T10:23:52.686Z,2.00
2017-08-06T10:26:19.031Z,2.10
2017-08-06T10:28:45.298Z,2.27
2017-08-06T10:31:11.689Z,2.07
2017-08-06T10:33:38.226Z,2.03
2017-08-06T10:36:04.489Z,1.97
2017-08-06T10:38:30.757Z,2.50
2017-08-06T10:40:57.055Z,2.20
2017-08-06T10:43:23.967Z,1.87
2017-08-06T10:45:50.254Z,2.10
2017-08-06T10:48:16.572Z,1.83
2017-08-06T10:50:42.851Z,2.60
2017-08-06T10:53:09.167Z,2.20
2017-08-06T10:55:35.481Z,1.90
2017-08-06T10:58:02.036Z,2.23
2017-08-06T11:00:28.329Z,1.87
2017-08-06T11:02:54.607Z,2.20
2017-08-06T11:05:20.894Z,1.63
2017-08-06T11:07:47.233Z,1.67
2017-08-06T11:10:13.526Z,1.93
2017-08-06T11:12:40.792Z,1.87
2017-08-06T11:15:07.101Z,1.90
2017-08-06T11:17:33.359Z,1.87
2017-08-06T11:19:59.635Z,1.77
2017-08-06T11:22:25.932Z,2.07
2017-08-06T11:24:52.214Z,2.03
2017-08-06T11:27:18.532Z,1.90
2017-08-06T11:29:44.829Z,1.70
2017-08-06T11:32:11.123Z,1.70
2017-08-06T11:34:37.721Z,1.63
2017-08-06T11:37:04.028Z,2.00
2017-08-06T11:39:31.222Z,1.70
2017-08-06T11:41:58.042Z,1.70
2017-08-06T11:44:24.875Z,3.10
2017-08-06T11:46:51.193Z,2.40
2017-08-06T11:49:17.462Z,2.20
2017-08-06T11:51:43.755Z,2.03
2017-08-06T11:54:10.713Z,2.00
2017-08-06T11:56:37.002Z,1.87
2017-08-06T11:59:04.548Z,2.17
2017-08-06T12:01:31.892Z,1.70
2017-08-06T12:03:58.196Z,1.93
2017-08-06T12:06:25.384Z,2.10
2017-08-06T12:08:52.948Z,2.43
2017-08-06T12:11:19.223Z,2.03
2017-08-06T12:13:45.505Z,2.20
2017-08-06T12:16:11.793Z,1.77
2017-08-06T12:18:38.100Z,2.00
2017-08-06T12:21:04.401Z,1.80
2017-08-06T12:23:31.324Z,1.80
2017-08-06T12:25:58.236Z,1.80
2017-08-06T12:28:24.529Z,1.83
2017-08-06T12:30:51.820Z,1.80
2017-08-06T12:33:18.119Z,2.03
2017-08-06T12:35:44.735Z,1.73
2017-08-06T12:38:11.947Z,2.00
2017-08-06T12:40:38.237Z,1.70
2017-08-06T12:43:04.538Z,2.00
2017-08-06T12:45:30.849Z,1.60
2017-08-06T12:47:57.125Z,1.83
2017-08-06T12:50:24.361Z,1.87
2017-08-06T12:52:50.664Z,1.70
2017-08-06T12:55:16.942Z,1.60
2017-08-06T12:57:43.581Z,1.73
2017-08-06T13:00:10.234Z,1.73
2017-08-06T13:02:37.362Z,1.73
2017-08-06T13:05:03.641Z,1.73
2017-08-06T13:07:30.745Z,1.90
2017-08-06T13:09:57.424Z,1.90
2017-08-06T13:12:23.704Z,1.70
2017-08-06T13:14:49.990Z,1.93
2017-08-06T13:17:16.331Z,2.03
2017-08-06T13:19:42.689Z,2.00
2017-08-06T13:22:08.977Z,1.80
2017-08-06T13:24:36.047Z,2.07
2017-08-06T13:27:02.302Z,1.60
2017-08-06T13:29:30.822Z,2.20
2017-08-06T13:31:57.837Z,1.77
2017-08-06T13:34:24.100Z,1.80
2017-08-06T13:36:50.401Z,1.87
2017-08-06T13:39:19.265Z,2.00
2017-08-06T13:41:45.610Z,2.33
2017-08-06T13:44:11.894Z,2.27
2017-08-06T13:46:38.222Z,1.93
2017-08-06T13:49:05.678Z,1.90
2017-08-06T13:51:32.336Z,1.70
2017-08-06T13:53:59.251Z,1.80
2017-08-06T13:56:25.520Z,1.40
2017-08-06T13:58:51.843Z,1.37
2017-08-06T14:01:18.135Z,1.70
2017-08-06T14:03:44.430Z,2.20
2017-08-06T14:06:11.828Z,1.90
2017-08-06T14:08:38.126Z,1.83
2017-08-06T14:11:04.824Z,1.20
2017-08-06T14:13:31.140Z,1.83
2017-08-06T14:15:57.406Z,2.20
2017-08-06T14:18:24.636Z,1.80
2017-08-06T14:20:50.951Z,1.97
2017-08-06T14:23:17.602Z,2.30
2017-08-06T14:25:44.473Z,1.60
2017-08-06T14:28:12.915Z,1.70
2017-08-06T14:30:39.200Z,2.13
2017-08-06T14:33:05.443Z,2.00
2017-08-06T14:35:32.596Z,1.67
2017-08-06T14:37:58.989Z,1.77
2017-08-06T14:40:25.647Z,2.03
2017-08-06T14:42:51.930Z,2.00
2017-08-06T14:45:18.224Z,1.87
2017-08-06T14:47:44.526Z,1.70
2017-08-06T14:50:11.694Z,2.07
2017-08-06T14:52:37.961Z,1.90
2017-08-06T14:55:04.226Z,2.20
2017-08-06T14:57:32.800Z,2.57
2017-08-06T14:59:59.080Z,2.17
2017-08-06T15:02:25.385Z,1.80
2017-08-06T15:04:51.642Z,2.10
2017-08-06T15:07:18.740Z,2.50
2017-08-06T15:09:45.012Z,1.80
2017-08-06T15:12:11.396Z,1.80
2017-08-06T15:14:37.649Z,1.90
2017-08-06T15:17:03.913Z,2.13
2017-08-06T15:19:30.814Z,2.17
2017-08-06T15:21:57.443Z,2.27
2017-08-06T15:24:24.736Z,2.17
2017-08-06T15:26:51.050Z,2.40
2017-08-06T15:29:17.360Z,2.17
2017-08-06T15:31:43.691Z,2.37
2017-08-06T15:34:10.000Z,3.33
2017-08-06T15:36:37.349Z,2.43
2017-08-06T15:39:03.740Z,2.47
2017-08-06T15:41:30.051Z,2.43
2017-08-06T15:43:57.846Z,2.20
2017-08-06T15:46:24.133Z,2.20
2017-08-06T15:48:50.418Z,2.40
2017-08-06T15:51:16.717Z,1.90
2017-08-06T15:53:42.998Z,2.20
2017-08-06T15:56:09.368Z,2.27
2017-08-06T15:58:35.633Z,2.23
2017-08-06T16:01:01.951Z,2.03
2017-08-06T16:03:30.014Z,2.30
2017-08-06T16:05:56.281Z,2.07
2017-08-06T16:08:23.549Z,2.10
2017-08-06T16:10:49.811Z,2.30
2017-08-06T16:13:16.144Z,2.17
2017-08-06T16:15:42.407Z,2.40
2017-08-06T16:18:08.726Z,2.53
2017-08-06T16:20:34.998Z,1.83
2017-08-06T16:23:05.721Z,2.07
2017-08-06T16:25:32.001Z,2.43
2017-08-06T16:27:58.306Z,2.07
2017-08-06T16:30:24.979Z,2.23
2017-08-06T16:32:51.264Z,2.00
2017-08-06T16:35:19.702Z,1.90
2017-08-06T16:37:46.768Z,2.03
2017-08-06T16:40:13.082Z,1.97
2017-08-06T16:42:39.962Z,2.00
2017-08-06T16:45:07.290Z,2.10
2017-08-06T16:47:33.569Z,2.20
2017-08-06T16:50:00.443Z,2.10
2017-08-06T16:52:29.486Z,2.30
2017-08-06T16:54:59.558Z,2.10
2017-08-06T16:57:27.596Z,2.03
2017-08-06T16:59:53.868Z,1.90
2017-08-06T17:02:20.160Z,2.90
2017-08-06T17:04:46.471Z,2.10
2017-08-06T17:07:13.145Z,2.20
2017-08-06T17:09:39.386Z,2.17
2017-08-06T17:12:05.945Z,2.07
2017-08-06T17:14:32.201Z,2.20
2017-08-06T17:16:58.895Z,2.30
2017-08-06T17:19:25.332Z,2.40
2017-08-06T17:21:51.658Z,2.50
2017-08-06T17:24:17.994Z,2.20
2017-08-06T17:26:44.320Z,2.53
2017-08-06T17:29:10.650Z,2.20
2017-08-06T17:31:36.918Z,2.70
2017-08-06T17:34:03.206Z,2.73
2017-08-06T17:36:29.481Z,2.30
2017-08-06T17:38:56.152Z,2.30
2017-08-06T17:41:22.429Z,2.37
2017-08-06T17:43:48.981Z,1.70
2017-08-06T17:46:15.662Z,2.60
2017-08-06T17:48:41.964Z,2.60
2017-08-06T17:51:08.254Z,2.13
2017-08-06T17:53:34.547Z,2.37
2017-08-06T17:56:00.830Z,2.40
2017-08-06T17:58:28.066Z,2.40
2017-08-06T18:00:54.661Z,2.20
2017-08-06T18:03:20.981Z,2.40
2017-08-06T18:05:47.410Z,2.40
2017-08-06T18:08:13.699Z,2.77
2017-08-06T18:10:41.045Z,2.17
2017-08-06T18:13:07.413Z,2.60
2017-08-06T18:15:34.084Z,2.10
2017-08-06T18:18:00.400Z,2.57
2017-08-06T18:20:26.694Z,3.23
2017-08-06T18:22:53.008Z,2.23
2017-08-06T18:25:20.224Z,2.50
2017-08-06T18:27:46.558Z,2.50
2017-08-06T18:30:12.847Z,2.80
2017-08-06T18:32:39.192Z,3.00
2017-08-06T18:35:06.274Z,3.10
2017-08-06T18:37:34.385Z,3.03
2017-08-06T18:40:01.579Z,2.57
2017-08-06T18:42:29.396Z,2.73
2017-08-06T18:44:56.187Z,3.37
2017-08-06T18:47:22.586Z,3.10
2017-08-06T18:49:49.250Z,2.70
2017-08-06T18:52:15.546Z,2.90
2017-08-06T18:54:41.858Z,2.80
2017-08-06T18:57:08.160Z,3.23
2017-08-06T18:59:34.482Z,2.77
2017-08-06T19:02:00.788Z,2.70
2017-08-06T19:04:27.222Z,2.87
2017-08-06T19:06:53.518Z,2.80
2017-08-06T19:09:20.174Z,3.50
2017-08-06T19:11:46.893Z,3.13
2017-08-06T19:14:13.160Z,3.07
2017-08-06T19:16:40.369Z,3.50
2017-08-06T19:19:06.685Z,2.90
2017-08-06T19:21:32.992Z,3.03
2017-08-06T19:23:59.306Z,3.27
2017-08-06T19:26:25.597Z,2.60
2017-08-06T19:28:51.895Z,3.20
2017-08-06T19:31:18.467Z,2.77
2017-08-06T19:33:45.797Z,2.87
2017-08-06T19:36:12.101Z,3.60
2017-08-06T19:38:38.407Z,3.37
2017-08-06T19:41:05.730Z,2.70
2017-08-06T19:43:32.030Z,3.07
2017-08-06T19:45:58.609Z,3.00
2017-08-06T19:48:25.278Z,3.40
2017-08-06T19:50:51.571Z,3.00
2017-08-06T19:53:17.884Z,3.10
2017-08-06T19:55:44.534Z,2.90
2017-08-06T19:58:11.604Z,3.33
2017-08-06T20:00:38.257Z,3.30
2017-08-06T20:03:05.482Z,3.10
2017-08-06T20:05:32.137Z,3.27
2017-08-06T20:08:00.249Z,3.47
2017-08-06T20:10:26.573Z,3.30
2017-08-06T20:12:52.874Z,3.40
2017-08-06T20:15:19.231Z,4.00
2017-08-06T20:17:45.574Z,3.80
2017-08-06T20:20:12.208Z,3.40
2017-08-06T20:22:38.506Z,4.17
2017-08-06T20:25:05.686Z,3.80
2017-08-06T20:27:31.985Z,4.17
2017-08-06T20:29:58.305Z,4.20
2017-08-06T20:32:24.983Z,3.70
2017-08-06T20:34:51.311Z,4.10
2017-08-06T20:37:17.618Z,3.93
2017-08-06T20:39:43.950Z,4.20
2017-08-06T20:42:10.820Z,4.40
2017-08-06T20:44:38.662Z,4.03
2017-08-06T20:47:08.099Z,4.03
2017-08-06T20:49:34.479Z,4.93
2017-08-06T20:52:01.446Z,4.60
2017-08-06T20:54:27.776Z,5.37
2017-08-06T20:56:56.202Z,5.30
2017-08-06T20:59:22.521Z,5.37
2017-08-06T21:01:48.794Z,5.60
2017-08-06T21:04:15.668Z,5.87
2017-08-06T21:06:41.943Z,5.55
2017-08-06T21:09:08.648Z,5.93
2017-08-06T21:11:41.012Z,5.25
2017-08-06T21:14:07.584Z,5.07
2017-08-06T21:16:33.875Z,5.07
2017-08-06T21:19:00.159Z,5.80
2017-08-06T21:21:26.472Z,5.97
2017-08-06T21:23:52.757Z,5.60
2017-08-06T21:26:19.064Z,6.00
2017-08-06T21:28:45.337Z,6.17
2017-08-06T21:31:11.618Z,6.20
2017-08-06T21:33:39.983Z,5.82
2017-08-06T21:36:06.272Z,6.43
2017-08-06T21:38:32.544Z,4.87
2017-08-06T21:40:59.668Z,5.90
2017-08-06T21:43:25.923Z,5.80
2017-08-06T21:45:52.168Z,5.00
2017-08-06T21:48:18.474Z,5.22
2017-08-06T21:50:45.132Z,4.80
2017-08-06T21:53:11.434Z,4.53
2017-08-06T21:55:37.775Z,4.90
2017-08-06T21:58:04.457Z,4.20
2017-08-06T22:00:30.718Z,3.57
2017-08-06T22:02:57.308Z,3.80
2017-08-06T22:05:23.590Z,3.65
2017-08-06T22:07:49.892Z,4.25
2017-08-06T22:10:16.178Z,4.28
2017-08-06T22:12:42.822Z,4.95
2017-08-06T22:15:09.124Z,4.72
2017-08-06T22:17:35.409Z,3.95
2017-08-06T22:20:02.150Z,4.20
2017-08-06T22:22:28.423Z,4.32
2017-08-06T22:24:54.730Z,4.62
2017-08-06T22:27:21.029Z,4.65
2017-08-06T22:29:47.301Z,4.10
2017-08-06T22:32:13.601Z,4.10
2017-08-06T22:34:39.878Z,3.87
2017-08-06T22:37:06.546Z,4.00
2017-08-06T22:39:32.814Z,3.83
2017-08-06T22:41:59.123Z,4.20
2017-08-06T22:44:25.417Z,4.47
2017-08-06T22:46:53.357Z,4.40
2017-08-06T22:49:19.642Z,4.25
2017-08-06T22:51:45.928Z,4.07
2017-08-06T22:54:12.227Z,4.15
2017-08-06T22:56:38.511Z,4.28
2017-08-06T22:59:04.806Z,4.43
2017-08-06T23:01:31.088Z,4.68
2017-08-06T23:03:57.380Z,5.57
2017-08-06T23:06:23.641Z,5.22
2017-08-06T23:08:49.980Z,4.50
2017-08-06T23:11:16.251Z,5.10
2017-08-06T23:13:42.806Z,4.25
2017-08-06T23:16:09.461Z,4.95
2017-08-06T23:18:35.712Z,5.22
2017-08-06T23:21:02.016Z,4.53
2017-08-06T23:23:28.290Z,4.55
2017-08-06T23:25:54.594Z,4.03
2017-08-06T23:28:20.868Z,4.22
2017-08-06T23:30:47.150Z,4.65
2017-08-06T23:33:13.415Z,4.50
2017-08-06T23:35:39.721Z,4.90
2017-08-06T23:38:06.031Z,4.90
2017-08-06T23:40:32.641Z,4.50
2017-08-06T23:42:58.913Z,4.05
2017-08-06T23:45:25.175Z,4.50
2017-08-06T23:47:51.479Z,4.53
2017-08-06T23:50:17.747Z,4.10
2017-08-06T23:52:44.049Z,4.28
2017-08-06T23:55:11.305Z,4.25
2017-08-06T23:57:37.573Z,4.70
